Terminal Aerodrome Forecast
Issued by NWS Charleston, WV

Current Version | Previous Version | Graphics & Text | Print | Product List | Glossary On
Versions: 1 2 3 4 5 6 7 8 9 10 11 12 13 14 15 16 17 18 19 20 21 22 23 24
000
FTUS41 KRLX 261120
TAFBKW
TAF
KBKW 261120Z 2612/2712 17007KT P6SM BKN040
      TEMPO 2612/2615 BKN025
     FM261500 20007KT P6SM VCTS OVC035CB
     FM261800 22010G19KT P6SM VCTS BKN050CB
     FM262300 29008KT 2SM SHRA OVC050
     FM270100 31008KT 4SM SHRA OVC010
     FM270400 32005KT 5SM BR OVC003
     FM270600 32004KT 1SM BR BKN001
     FM271000 32004KT 3SM BR BKN008=

USA.gov is the U.S. government's official web portal to all federal, state and local government web resources and services.